sensor_id;sensor_type;location;lat;lon;timestamp;pressure;altitude;pressure_sealevel;temperature;humidity
40205;BME280;26963;42.666;23.366;2022-07-29T03:40:05;95042.00;;;20.76;64.70
40205;BME280;26963;42.666;23.366;2022-07-29T03:42:36;94885.28;;;19.77;64.79
40205;BME280;26963;42.666;23.366;2022-07-29T03:45:09;95024.06;;;20.71;64.80
40205;BME280;26963;42.666;23.366;2022-07-29T03:47:39;95053.34;;;20.97;64.24
40205;BME280;26963;42.666;23.366;2022-07-29T03:50:11;95072.34;;;21.13;64.24
40205;BME280;26963;42.666;23.366;2022-07-29T03:52:41;95084.25;;;21.25;63.81
40205;BME280;26963;42.666;23.366;2022-07-29T03:55:08;95082.75;;;21.27;63.88
40205;BME280;26963;42.666;23.366;2022-07-29T03:57:34;95087.59;;;21.38;63.54
40205;BME280;26963;42.666;23.366;2022-07-29T04:00:09;95089.19;;;21.39;63.12
40205;BME280;26963;42.666;23.366;2022-07-29T04:02:38;95093.22;;;21.45;63.27
40205;BME280;26963;42.666;23.366;2022-07-29T04:05:05;95093.00;;;21.54;62.91
40205;BME280;26963;42.666;23.366;2022-07-29T04:07:32;95093.16;;;21.61;62.89
40205;BME280;26963;42.666;23.366;2022-07-29T04:09:58;95099.25;;;21.74;62.25
40205;BME280;26963;42.666;23.366;2022-07-29T04:12:24;95076.94;;;21.88;62.05
40205;BME280;26963;42.666;23.366;2022-07-29T04:14:55;95041.88;;;21.86;61.80
40205;BME280;26963;42.666;23.366;2022-07-29T04:17:20;95079.13;;;22.25;61.15
40205;BME280;26963;42.666;23.366;2022-07-29T04:19:46;95072.41;;;22.42;59.76
40205;BME280;26963;42.666;23.366;2022-07-29T04:22:12;95065.78;;;22.66;58.86
40205;BME280;26963;42.666;23.366;2022-07-29T04:24:40;95074.44;;;22.72;58.18
40205;BME280;26963;42.666;23.366;2022-07-29T04:27:06;95060.53;;;22.80;56.83
40205;BME280;26963;42.666;23.366;2022-07-29T04:29:32;95070.44;;;23.19;56.68
40205;BME280;26963;42.666;23.366;2022-07-29T04:31:57;95074.66;;;23.43;55.49
40205;BME280;26963;42.666;23.366;2022-07-29T04:34:23;95082.63;;;23.59;54.77
40205;BME280;26963;42.666;23.366;2022-07-29T04:36:48;95074.84;;;23.61;54.45
40205;BME280;26963;42.666;23.366;2022-07-29T04:39:14;95070.59;;;23.64;54.12
40205;BME280;26963;42.666;23.366;2022-07-29T04:41:40;95100.41;;;23.80;53.54
40205;BME280;26963;42.666;23.366;2022-07-29T04:44:08;95090.47;;;23.65;53.50
40205;BME280;26963;42.666;23.366;2022-07-29T04:46:35;95089.63;;;23.57;53.73
40205;BME280;26963;42.666;23.366;2022-07-29T04:49:01;95100.50;;;23.53;53.75
40205;BME280;26963;42.666;23.366;2022-07-29T04:51:32;95100.28;;;23.35;54.17
40205;BME280;26963;42.666;23.366;2022-07-29T04:53:58;95088.34;;;23.17;54.63
40205;BME280;26963;42.666;23.366;2022-07-29T04:56:23;95063.19;;;23.04;54.90
40205;BME280;26963;42.666;23.366;2022-07-29T04:58:49;95098.91;;;23.18;54.99
40205;BME280;26963;42.666;23.366;2022-07-29T05:01:14;95099.25;;;23.17;55.18
40205;BME280;26963;42.666;23.366;2022-07-29T05:03:40;95049.69;;;22.84;55.30
40205;BME280;26963;42.666;23.366;2022-07-29T05:06:08;95106.19;;;23.14;55.56
40205;BME280;26963;42.666;23.366;2022-07-29T05:08:51;95095.75;;;23.16;55.27
40205;BME280;26963;42.666;23.366;2022-07-29T05:11:16;95079.59;;;23.07;55.19
40205;BME280;26963;42.666;23.366;2022-07-29T05:13:42;95098.53;;;23.20;55.26
40205;BME280;26963;42.666;23.366;2022-07-29T05:16:10;95065.50;;;23.02;55.37
40205;BME280;26963;42.666;23.366;2022-07-29T05:18:41;95065.13;;;23.03;54.55
40205;BME280;26963;42.666;23.366;2022-07-29T05:21:10;95026.97;;;22.76;54.35
40205;BME280;26963;42.666;23.366;2022-07-29T05:23:38;95110.31;;;23.27;55.29
40205;BME280;26963;42.666;23.366;2022-07-29T05:26:04;95115.09;;;23.34;55.01
40205;BME280;26963;42.666;23.366;2022-07-29T05:28:33;95114.34;;;23.37;55.18
40205;BME280;26963;42.666;23.366;2022-07-29T05:30:59;95065.66;;;23.12;55.08
40205;BME280;26963;42.666;23.366;2022-07-29T05:33:25;95076.69;;;23.20;54.67
40205;BME280;26963;42.666;23.366;2022-07-29T05:35:53;95101.91;;;23.40;54.46
40205;BME280;26963;42.666;23.366;2022-07-29T05:38:25;95105.09;;;23.45;53.79
40205;BME280;26963;42.666;23.366;2022-07-29T05:40:56;95115.31;;;23.52;54.41
40205;BME280;26963;42.666;23.366;2022-07-29T05:43:23;95102.31;;;23.42;53.96
40205;BME280;26963;42.666;23.366;2022-07-29T05:45:48;95096.84;;;23.42;54.10
40205;BME280;26963;42.666;23.366;2022-07-29T05:48:16;95113.75;;;23.51;54.32
40205;BME280;26963;42.666;23.366;2022-07-29T05:50:45;95053.03;;;23.01;53.51
40205;BME280;26963;42.666;23.366;2022-07-29T05:53:10;95119.13;;;23.44;54.19
40205;BME280;26963;42.666;23.366;2022-07-29T05:55:39;95123.09;;;23.50;53.96
40205;BME280;26963;42.666;23.366;2022-07-29T05:58:04;95110.50;;;23.42;54.06
40205;BME280;26963;42.666;23.366;2022-07-29T06:00:30;95072.63;;;23.10;54.27
40205;BME280;26963;42.666;23.366;2022-07-29T06:02:56;95125.94;;;23.31;55.09
40205;BME280;26963;42.666;23.366;2022-07-29T06:05:22;95122.91;;;23.36;55.84
40205;BME280;26963;42.666;23.366;2022-07-29T06:07:48;95122.28;;;23.46;55.10
40205;BME280;26963;42.666;23.366;2022-07-29T06:10:14;95077.53;;;23.24;55.22
40205;BME280;26963;42.666;23.366;2022-07-29T06:12:39;95127.47;;;23.58;54.22
40205;BME280;26963;42.666;23.366;2022-07-29T06:15:08;95120.13;;;23.63;55.08
40205;BME280;26963;42.666;23.366;2022-07-29T06:17:37;95087.06;;;23.37;54.52
40205;BME280;26963;42.666;23.366;2022-07-29T06:20:05;95111.50;;;23.60;54.97
40205;BME280;26963;42.666;23.366;2022-07-29T06:22:34;95044.81;;;23.27;54.27
40205;BME280;26963;42.666;23.366;2022-07-29T06:25:01;95122.34;;;23.87;53.93
40205;BME280;26963;42.666;23.366;2022-07-29T06:27:29;95117.66;;;23.84;53.54
40205;BME280;26963;42.666;23.366;2022-07-29T06:29:57;95070.97;;;23.63;54.51
40205;BME280;26963;42.666;23.366;2022-07-29T06:32:26;95035.63;;;23.43;54.08
40205;BME280;26963;42.666;23.366;2022-07-29T06:34:51;95109.56;;;25.37;51.24
40205;BME280;26963;42.666;23.366;2022-07-29T06:37:17;95121.72;;;28.74;43.13
40205;BME280;26963;42.666;23.366;2022-07-29T06:39:42;95107.19;;;30.73;37.75
40205;BME280;26963;42.666;23.366;2022-07-29T06:42:08;95090.00;;;32.30;34.70
40205;BME280;26963;42.666;23.366;2022-07-29T06:44:33;95109.72;;;33.61;32.00
40205;BME280;26963;42.666;23.366;2022-07-29T06:47:02;95103.16;;;34.23;30.36
40205;BME280;26963;42.666;23.366;2022-07-29T06:49:30;95103.44;;;35.15;28.97
40205;BME280;26963;42.666;23.366;2022-07-29T06:51:56;95108.94;;;35.85;27.70
40205;BME280;26963;42.666;23.366;2022-07-29T06:54:24;95111.50;;;36.65;27.06
40205;BME280;26963;42.666;23.366;2022-07-29T06:56:50;95108.56;;;37.56;24.38
40205;BME280;26963;42.666;23.366;2022-07-29T06:59:15;95052.69;;;37.93;24.08
40205;BME280;26963;42.666;23.366;2022-07-29T07:01:42;95069.75;;;38.71;23.22
40205;BME280;26963;42.666;23.366;2022-07-29T07:04:11;95100.09;;;39.21;22.52
40205;BME280;26963;42.666;23.366;2022-07-29T07:06:40;95072.22;;;39.66;21.41
40205;BME280;26963;42.666;23.366;2022-07-29T07:09:07;95093.09;;;38.68;22.22
40205;BME280;26963;42.666;23.366;2022-07-29T07:11:36;95083.31;;;38.21;23.04
40205;BME280;26963;42.666;23.366;2022-07-29T07:14:05;95104.56;;;38.37;23.05
40205;BME280;26963;42.666;23.366;2022-07-29T07:16:31;95104.31;;;38.92;22.56
40205;BME280;26963;42.666;23.366;2022-07-29T07:19:03;95096.63;;;38.44;23.06
40205;BME280;26963;42.666;23.366;2022-07-29T07:21:32;95090.69;;;38.52;22.37
40205;BME280;26963;42.666;23.366;2022-07-29T07:24:04;95094.06;;;38.56;22.17
40205;BME280;26963;42.666;23.366;2022-07-29T07:26:42;95107.94;;;39.71;21.29
40205;BME280;26963;42.666;23.366;2022-07-29T07:29:11;95099.28;;;40.29;20.45
40205;BME280;26963;42.666;23.366;2022-07-29T07:31:37;95089.56;;;40.60;20.00
40205;BME280;26963;42.666;23.366;2022-07-29T07:34:07;95110.19;;;40.27;20.04
40205;BME280;26963;42.666;23.366;2022-07-29T07:36:33;95088.63;;;40.33;20.12
40205;BME280;26963;42.666;23.366;2022-07-29T07:38:59;95050.38;;;40.30;19.78
40205;BME280;26963;42.666;23.366;2022-07-29T07:41:27;95079.81;;;41.32;19.46
40205;BME280;26963;42.666;23.366;2022-07-29T07:43:53;95092.22;;;41.93;18.64
40205;BME280;26963;42.666;23.366;2022-07-29T07:46:21;95069.66;;;41.61;18.44
40205;BME280;26963;42.666;23.366;2022-07-29T07:48:52;95090.56;;;41.81;18.26
40205;BME280;26963;42.666;23.366;2022-07-29T07:51:18;95052.41;;;41.95;18.01
40205;BME280;26963;42.666;23.366;2022-07-29T07:53:43;95087.53;;;41.58;18.62
40205;BME280;26963;42.666;23.366;2022-07-29T07:56:10;95071.66;;;41.34;18.75
40205;BME280;26963;42.666;23.366;2022-07-29T07:58:38;95092.22;;;41.67;18.32
40205;BME280;26963;42.666;23.366;2022-07-29T08:01:04;95055.03;;;41.31;18.64
40205;BME280;26963;42.666;23.366;2022-07-29T08:03:33;95087.47;;;42.31;18.17
40205;BME280;26963;42.666;23.366;2022-07-29T08:06:02;95096.03;;;42.22;17.53
40205;BME280;26963;42.666;23.366;2022-07-29T08:08:31;95098.28;;;42.12;17.51
40205;BME280;26963;42.666;23.366;2022-07-29T08:10:57;95079.47;;;42.24;17.32
40205;BME280;26963;42.666;23.366;2022-07-29T08:13:26;95097.97;;;42.68;17.18
40205;BME280;26963;42.666;23.366;2022-07-29T08:15:56;95086.47;;;42.34;17.68
40205;BME280;26963;42.666;23.366;2022-07-29T08:18:30;95091.13;;;42.11;17.68
40205;BME280;26963;42.666;23.366;2022-07-29T08:20:57;95092.97;;;41.67;17.63
40205;BME280;26963;42.666;23.366;2022-07-29T08:23:23;95063.34;;;41.66;17.30
40205;BME280;26963;42.666;23.366;2022-07-29T08:25:49;95073.63;;;42.28;16.91
40205;BME280;26963;42.666;23.366;2022-07-29T08:28:15;95071.22;;;42.15;17.37
40205;BME280;26963;42.666;23.366;2022-07-29T08:30:44;95079.34;;;42.39;16.87
40205;BME280;26963;42.666;23.366;2022-07-29T08:33:13;95063.84;;;42.23;17.06
40205;BME280;26963;42.666;23.366;2022-07-29T08:35:39;95065.09;;;42.54;16.85
40205;BME280;26963;42.666;23.366;2022-07-29T08:38:08;95061.19;;;42.78;16.89
40205;BME280;26963;42.666;23.366;2022-07-29T08:40:37;95075.22;;;42.34;16.45
40205;BME280;26963;42.666;23.366;2022-07-29T08:43:09;95068.41;;;42.90;15.47
40205;BME280;26963;42.666;23.366;2022-07-29T08:45:54;95072.78;;;42.91;15.73
40205;BME280;26963;42.666;23.366;2022-07-29T08:48:30;95073.28;;;42.52;16.19
40205;BME280;26963;42.666;23.366;2022-07-29T08:50:58;95070.69;;;42.86;15.98
40205;BME280;26963;42.666;23.366;2022-07-29T08:53:26;95065.66;;;42.58;15.79
40205;BME280;26963;42.666;23.366;2022-07-29T08:55:55;95069.88;;;42.36;15.41
40205;BME280;26963;42.666;23.366;2022-07-29T08:58:26;95073.47;;;42.11;15.93
40205;BME280;26963;42.666;23.366;2022-07-29T09:00:57;95054.59;;;41.85;16.51
40205;BME280;26963;42.666;23.366;2022-07-29T09:03:30;95077.53;;;42.10;16.31
40205;BME280;26963;42.666;23.366;2022-07-29T09:06:00;95067.31;;;42.07;16.21
40205;BME280;26963;42.666;23.366;2022-07-29T09:08:27;94997.38;;;41.56;15.80
40205;BME280;26963;42.666;23.366;2022-07-29T09:10:54;95073.28;;;41.62;16.61
40205;BME280;26963;42.666;23.366;2022-07-29T09:13:21;95070.03;;;39.31;18.76
40205;BME280;26963;42.666;23.366;2022-07-29T09:15:47;95025.13;;;37.67;19.90
40205;BME280;26963;42.666;23.366;2022-07-29T09:21:02;95021.72;;;35.35;22.98
40205;BME280;26963;42.666;23.366;2022-07-29T09:24:25;95071.75;;;34.39;24.38
40205;BME280;26963;42.666;23.366;2022-07-29T09:26:51;95057.63;;;33.94;25.67
40205;BME280;26963;42.666;23.366;2022-07-29T09:29:20;95060.91;;;33.76;25.63
40205;BME280;26963;42.666;23.366;2022-07-29T09:31:48;95066.16;;;33.87;25.90
40205;BME280;26963;42.666;23.366;2022-07-29T09:34:16;94997.09;;;33.63;26.31
40205;BME280;26963;42.666;23.366;2022-07-29T09:36:50;95064.53;;;34.16;26.18
40205;BME280;26963;42.666;23.366;2022-07-29T09:39:27;95009.88;;;33.87;26.01
40205;BME280;26963;42.666;23.366;2022-07-29T09:41:56;95059.84;;;34.12;26.27
40205;BME280;26963;42.666;23.366;2022-07-29T09:44:47;95040.22;;;34.07;26.30
40205;BME280;26963;42.666;23.366;2022-07-29T09:47:14;94996.63;;;33.65;26.48
40205;BME280;26963;42.666;23.366;2022-07-29T09:49:57;95039.47;;;33.77;26.79
40205;BME280;26963;42.666;23.366;2022-07-29T09:52:26;95047.06;;;33.89;26.37
40205;BME280;26963;42.666;23.366;2022-07-29T09:55:08;95014.06;;;33.78;26.68
40205;BME280;26963;42.666;23.366;2022-07-29T09:57:35;95030.41;;;33.34;27.32
40205;BME280;26963;42.666;23.366;2022-07-29T10:00:10;95042.44;;;32.98;27.81
40205;BME280;26963;42.666;23.366;2022-07-29T10:02:41;95028.88;;;32.71;28.72
40205;BME280;26963;42.666;23.366;2022-07-29T10:05:26;95025.06;;;32.48;29.06
40205;BME280;26963;42.666;23.366;2022-07-29T10:07:56;95030.63;;;32.31;29.12
40205;BME280;26963;42.666;23.366;2022-07-29T10:10:30;95010.63;;;32.24;29.21
40205;BME280;26963;42.666;23.366;2022-07-29T10:13:10;94961.91;;;31.93;28.29
40205;BME280;26963;42.666;23.366;2022-07-29T10:15:41;95019.28;;;32.26;28.67
40205;BME280;26963;42.666;23.366;2022-07-29T10:18:11;95003.25;;;32.00;28.91
40205;BME280;26963;42.666;23.366;2022-07-29T10:20:38;95000.81;;;31.86;29.13
40205;BME280;26963;42.666;23.366;2022-07-29T10:23:09;95001.47;;;31.74;27.91
40205;BME280;26963;42.666;23.366;2022-07-29T10:25:35;95013.34;;;31.91;28.53
40205;BME280;26963;42.666;23.366;2022-07-29T10:28:05;95013.28;;;31.94;29.30
40205;BME280;26963;42.666;23.366;2022-07-29T10:30:34;94932.88;;;31.48;28.87
40205;BME280;26963;42.666;23.366;2022-07-29T10:39:04;95001.00;;;31.95;28.99
40205;BME280;26963;42.666;23.366;2022-07-29T10:41:43;94998.47;;;32.01;27.50
40205;BME280;26963;42.666;23.366;2022-07-29T10:44:20;94984.66;;;32.01;28.50
40205;BME280;26963;42.666;23.366;2022-07-29T10:46:46;94974.38;;;32.01;29.34
40205;BME280;26963;42.666;23.366;2022-07-29T10:49:20;94914.50;;;31.58;28.15
40205;BME280;26963;42.666;23.366;2022-07-29T10:57:19;94959.81;;;31.81;28.77
40205;BME280;26963;42.666;23.366;2022-07-29T10:59:50;94953.34;;;31.87;27.71
40205;BME280;26963;42.666;23.366;2022-07-29T11:07:26;94970.72;;;31.88;29.32
40205;BME280;26963;42.666;23.366;2022-07-29T11:10:21;94973.66;;;31.97;28.00
40205;BME280;26963;42.666;23.366;2022-07-29T11:12:50;94923.47;;;31.62;27.91
40205;BME280;26963;42.666;23.366;2022-07-29T11:15:19;94950.50;;;31.75;27.71
40205;BME280;26963;42.666;23.366;2022-07-29T11:20:33;94950.38;;;31.78;29.15
40205;BME280;26963;42.666;23.366;2022-07-29T11:23:00;94948.75;;;31.81;28.75
40205;BME280;26963;42.666;23.366;2022-07-29T11:25:26;94940.28;;;31.88;29.00
40205;BME280;26963;42.666;23.366;2022-07-29T11:28:15;94938.34;;;31.52;28.98
40205;BME280;26963;42.666;23.366;2022-07-29T11:30:53;94868.44;;;31.15;28.54
40205;BME280;26963;42.666;23.366;2022-07-29T11:36:13;94892.53;;;31.51;28.82
40205;BME280;26963;42.666;23.366;2022-07-29T11:38:46;94942.72;;;31.69;29.20
40205;BME280;26963;42.666;23.366;2022-07-29T11:41:46;94944.19;;;31.54;28.61
40205;BME280;26963;42.666;23.366;2022-07-29T11:44:15;94946.81;;;31.61;29.27
40205;BME280;26963;42.666;23.366;2022-07-29T11:46:48;94939.66;;;31.64;28.33
40205;BME280;26963;42.666;23.366;2022-07-29T11:49:21;94891.31;;;31.35;28.41
40205;BME280;26963;42.666;23.366;2022-07-29T11:51:56;94926.25;;;31.62;28.36
40205;BME280;26963;42.666;23.366;2022-07-29T11:54:26;94926.19;;;31.66;28.16
40205;BME280;26963;42.666;23.366;2022-07-29T11:56:57;94928.31;;;31.58;28.50
40205;BME280;26963;42.666;23.366;2022-07-29T11:59:23;94921.66;;;31.55;28.40
40205;BME280;26963;42.666;23.366;2022-07-29T12:01:57;94926.25;;;31.62;28.45
40205;BME280;26963;42.666;23.366;2022-07-29T12:04:25;94913.97;;;31.47;28.67
40205;BME280;26963;42.666;23.366;2022-07-29T12:06:54;94920.69;;;31.46;28.08
40205;BME280;26963;42.666;23.366;2022-07-29T12:09:21;94925.53;;;31.42;29.22
40205;BME280;26963;42.666;23.366;2022-07-29T12:11:47;94918.06;;;31.38;29.38
40205;BME280;26963;42.666;23.366;2022-07-29T12:14:32;94892.41;;;31.21;29.61
40205;BME280;26963;42.666;23.366;2022-07-29T12:17:00;94921.03;;;31.48;28.72
40205;BME280;26963;42.666;23.366;2022-07-29T12:19:47;94925.88;;;31.60;28.88
40205;BME280;26963;42.666;23.366;2022-07-29T12:22:24;94916.28;;;31.48;29.31
40205;BME280;26963;42.666;23.366;2022-07-29T12:25:01;94923.44;;;31.46;29.22
40205;BME280;26963;42.666;23.366;2022-07-29T12:27:28;94926.38;;;31.38;28.20
40205;BME280;26963;42.666;23.366;2022-07-29T12:29:57;94925.63;;;31.54;28.28
40205;BME280;26963;42.666;23.366;2022-07-29T12:32:23;94907.16;;;31.31;27.95
40205;BME280;26963;42.666;23.366;2022-07-29T12:34:50;94872.56;;;31.06;28.45
40205;BME280;26963;42.666;23.366;2022-07-29T12:37:16;94919.63;;;31.39;28.34
40205;BME280;26963;42.666;23.366;2022-07-29T12:39:42;94930.63;;;31.43;28.98
40205;BME280;26963;42.666;23.366;2022-07-29T12:42:14;94914.25;;;31.32;28.74
40205;BME280;26963;42.666;23.366;2022-07-29T12:44:48;94901.19;;;31.16;28.42
40205;BME280;26963;42.666;23.366;2022-07-29T12:47:14;94911.16;;;31.30;28.58
40205;BME280;26963;42.666;23.366;2022-07-29T12:49:46;94907.88;;;31.35;28.37
40205;BME280;26963;42.666;23.366;2022-07-29T12:52:32;94897.53;;;31.39;28.22
40205;BME280;26963;42.666;23.366;2022-07-29T12:55:02;94817.59;;;30.92;28.31
40205;BME280;26963;42.666;23.366;2022-07-29T12:57:30;94905.22;;;31.48;28.31
40205;BME280;26963;42.666;23.366;2022-07-29T13:02:28;94830.13;;;30.97;28.25
40205;BME280;26963;42.666;23.366;2022-07-29T13:05:01;94881.63;;;31.44;28.59
40205;BME280;26963;42.666;23.366;2022-07-29T13:07:31;94882.28;;;31.31;28.39
40205;BME280;26963;42.666;23.366;2022-07-29T13:15:29;94877.88;;;31.34;28.85
40205;BME280;26963;42.666;23.366;2022-07-29T13:17:54;94881.59;;;31.27;28.56
40205;BME280;26963;42.666;23.366;2022-07-29T13:20:24;94876.06;;;31.27;29.11
40205;BME280;26963;42.666;23.366;2022-07-29T13:22:50;94864.50;;;31.32;29.19
40205;BME280;26963;42.666;23.366;2022-07-29T13:25:27;94859.22;;;31.21;29.16
40205;BME280;26963;42.666;23.366;2022-07-29T13:27:52;94870.03;;;31.32;28.53
40205;BME280;26963;42.666;23.366;2022-07-29T13:30:20;94860.50;;;31.17;28.46
40205;BME280;26963;42.666;23.366;2022-07-29T13:32:53;94883.81;;;31.16;29.24
40205;BME280;26963;42.666;23.366;2022-07-29T13:35:19;94854.91;;;31.00;29.35
40205;BME280;26963;42.666;23.366;2022-07-29T13:37:48;94861.53;;;31.06;29.68
40205;BME280;26963;42.666;23.366;2022-07-29T13:40:19;94848.91;;;30.85;29.60
40205;BME280;26963;42.666;23.366;2022-07-29T13:42:44;94848.53;;;31.03;29.05
40205;BME280;26963;42.666;23.366;2022-07-29T13:45:10;94861.78;;;31.12;29.12
40205;BME280;26963;42.666;23.366;2022-07-29T13:47:42;94857.06;;;31.13;28.68
40205;BME280;26963;42.666;23.366;2022-07-29T13:50:08;94857.06;;;31.13;29.00
40205;BME280;26963;42.666;23.366;2022-07-29T13:52:38;94853.09;;;31.14;29.12
40205;BME280;26963;42.666;23.366;2022-07-29T13:55:04;94859.25;;;31.01;28.96
40205;BME280;26963;42.666;23.366;2022-07-29T13:57:29;94806.16;;;30.73;28.96
40205;BME280;26963;42.666;23.366;2022-07-29T14:00:01;94853.34;;;30.99;28.91
40205;BME280;26963;42.666;23.366;2022-07-29T14:02:32;94840.03;;;30.94;28.87
40205;BME280;26963;42.666;23.366;2022-07-29T14:05:07;94861.38;;;31.14;28.54
40205;BME280;26963;42.666;23.366;2022-07-29T14:07:37;94849.47;;;31.17;28.88
40205;BME280;26963;42.666;23.366;2022-07-29T14:10:10;94833.66;;;30.97;28.91
40205;BME280;26963;42.666;23.366;2022-07-29T14:12:39;94856.75;;;31.07;28.70
40205;BME280;26963;42.666;23.366;2022-07-29T14:15:07;94873.13;;;30.98;28.85
40205;BME280;26963;42.666;23.366;2022-07-29T14:17:33;94873.41;;;30.83;28.90
40205;BME280;26963;42.666;23.366;2022-07-29T14:19:58;94855.94;;;30.90;29.01
40205;BME280;26963;42.666;23.366;2022-07-29T14:22:23;94863.84;;;30.88;29.82
40205;BME280;26963;42.666;23.366;2022-07-29T14:24:50;94836.53;;;30.73;29.20
40205;BME280;26963;42.666;23.366;2022-07-29T14:27:16;94851.25;;;30.87;28.73
40205;BME280;26963;42.666;23.366;2022-07-29T14:29:41;94851.97;;;30.91;29.21
40205;BME280;26963;42.666;23.366;2022-07-29T14:32:08;94810.91;;;30.53;29.82
40205;BME280;26963;42.666;23.366;2022-07-29T14:34:35;94841.91;;;30.81;29.25
40205;BME280;26963;42.666;23.366;2022-07-29T14:37:02;94834.13;;;30.75;29.32
40205;BME280;26963;42.666;23.366;2022-07-29T14:39:39;94855.75;;;30.97;29.20
40205;BME280;26963;42.666;23.366;2022-07-29T14:42:04;94842.06;;;30.73;29.02
40205;BME280;26963;42.666;23.366;2022-07-29T14:44:30;94843.19;;;30.76;29.39
40205;BME280;26963;42.666;23.366;2022-07-29T14:46:59;94804.31;;;30.47;29.46
40205;BME280;26963;42.666;23.366;2022-07-29T14:49:26;94797.75;;;30.40;29.46
40205;BME280;26963;42.666;23.366;2022-07-29T14:51:54;94843.91;;;30.60;29.12
40205;BME280;26963;42.666;23.366;2022-07-29T14:54:22;94844.25;;;30.62;30.05
40205;BME280;26963;42.666;23.366;2022-07-29T14:56:50;94844.38;;;30.75;28.87
40205;BME280;26963;42.666;23.366;2022-07-29T14:59:19;94813.91;;;30.62;29.17
40205;BME280;26963;42.666;23.366;2022-07-29T15:01:44;94717.22;;;30.05;28.91
40205;BME280;26963;42.666;23.366;2022-07-29T15:04:12;94826.34;;;30.70;29.67
40205;BME280;26963;42.666;23.366;2022-07-29T15:06:38;94854.72;;;30.91;28.94
40205;BME280;26963;42.666;23.366;2022-07-29T15:09:07;94843.56;;;30.95;28.77
40205;BME280;26963;42.666;23.366;2022-07-29T15:11:38;94853.28;;;31.03;28.67
40205;BME280;26963;42.666;23.366;2022-07-29T15:14:11;94845.56;;;30.94;28.10
40205;BME280;26963;42.666;23.366;2022-07-29T15:16:43;94823.94;;;30.72;28.43
40205;BME280;26963;42.666;23.366;2022-07-29T15:19:08;94850.63;;;30.79;27.91
40205;BME280;26963;42.666;23.366;2022-07-29T15:21:37;94851.81;;;30.78;27.91
40205;BME280;26963;42.666;23.366;2022-07-29T15:24:02;94831.78;;;30.74;27.95
40205;BME280;26963;42.666;23.366;2022-07-29T15:26:28;94825.63;;;30.66;27.85
40205;BME280;26963;42.666;23.366;2022-07-29T15:28:56;94815.53;;;30.60;28.33
40205;BME280;26963;42.666;23.366;2022-07-29T15:31:24;94831.16;;;30.66;27.73
40205;BME280;26963;42.666;23.366;2022-07-29T15:33:52;94838.66;;;30.66;28.31
40205;BME280;26963;42.666;23.366;2022-07-29T15:36:21;94779.06;;;30.28;28.04
40205;BME280;26963;42.666;23.366;2022-07-29T15:38:53;94857.38;;;30.58;28.38
40205;BME280;26963;42.666;23.366;2022-07-29T15:41:20;94839.16;;;30.61;28.35
40205;BME280;26963;42.666;23.366;2022-07-29T15:43:51;94841.63;;;30.55;28.05
40205;BME280;26963;42.666;23.366;2022-07-29T15:46:48;94840.06;;;30.54;28.63
40205;BME280;26963;42.666;23.366;2022-07-29T15:49:34;94837.81;;;30.49;29.06
40205;BME280;26963;42.666;23.366;2022-07-29T15:52:03;94807.47;;;30.25;29.04
40205;BME280;26963;42.666;23.366;2022-07-29T15:54:32;94790.22;;;30.21;28.59
40205;BME280;26963;42.666;23.366;2022-07-29T15:56:57;94840.34;;;30.39;29.25
40205;BME280;26963;42.666;23.366;2022-07-29T15:59:32;94842.41;;;30.35;29.17
40205;BME280;26963;42.666;23.366;2022-07-29T16:02:01;94839.06;;;30.24;29.05
40205;BME280;26963;42.666;23.366;2022-07-29T16:04:26;94780.72;;;29.78;29.47
40205;BME280;26963;42.666;23.366;2022-07-29T16:06:52;94813.56;;;29.96;29.61
40205;BME280;26963;42.666;23.366;2022-07-29T16:09:18;94844.22;;;29.98;29.99
40205;BME280;26963;42.666;23.366;2022-07-29T16:11:44;94799.84;;;29.65;30.01
40205;BME280;26963;42.666;23.366;2022-07-29T16:14:16;94839.31;;;29.86;30.52
40205;BME280;26963;42.666;23.366;2022-07-29T16:16:42;94836.66;;;29.78;30.54
40205;BME280;26963;42.666;23.366;2022-07-29T16:19:08;94846.91;;;29.78;30.72
40205;BME280;26963;42.666;23.366;2022-07-29T16:21:35;94799.66;;;29.28;30.51
40205;BME280;26963;42.666;23.366;2022-07-29T16:24:08;94851.81;;;29.67;30.36
40205;BME280;26963;42.666;23.366;2022-07-29T16:26:34;94846.44;;;29.59;30.61
40205;BME280;26963;42.666;23.366;2022-07-29T16:29:11;94838.69;;;29.51;31.24
40205;BME280;26963;42.666;23.366;2022-07-29T16:31:39;94857.13;;;29.54;31.53
40205;BME280;26963;42.666;23.366;2022-07-29T16:34:07;94846.34;;;29.39;31.69
40205;BME280;26963;42.666;23.366;2022-07-29T16:36:33;94822.97;;;29.20;31.81
40205;BME280;26963;42.666;23.366;2022-07-29T16:39:04;94842.22;;;29.24;31.53
40205;BME280;26963;42.666;23.366;2022-07-29T16:41:34;94857.13;;;29.30;31.79
40205;BME280;26963;42.666;23.366;2022-07-29T16:44:08;94873.28;;;29.24;31.63
40205;BME280;26963;42.666;23.366;2022-07-29T16:46:34;94874.53;;;29.20;31.89
40205;BME280;26963;42.666;23.366;2022-07-29T16:49:04;94863.25;;;29.10;31.60
40205;BME280;26963;42.666;23.366;2022-07-29T16:51:32;94823.59;;;28.77;31.77
40205;BME280;26963;42.666;23.366;2022-07-29T16:54:00;94815.44;;;28.66;31.88
40205;BME280;26963;42.666;23.366;2022-07-29T16:56:35;94858.81;;;28.89;31.57
40205;BME280;26963;42.666;23.366;2022-07-29T16:59:07;94851.81;;;28.85;31.56
40205;BME280;26963;42.666;23.366;2022-07-29T17:01:38;94856.06;;;28.89;31.53
40205;BME280;26963;42.666;23.366;2022-07-29T17:04:03;94860.69;;;28.96;31.84
40205;BME280;26963;42.666;23.366;2022-07-29T17:06:33;94862.69;;;28.92;31.73
40205;BME280;26963;42.666;23.366;2022-07-29T17:09:00;94855.28;;;28.89;31.79
40205;BME280;26963;42.666;23.366;2022-07-29T17:11:29;94856.94;;;28.83;31.37
40205;BME280;26963;42.666;23.366;2022-07-29T17:13:56;94771.88;;;28.26;31.64